Batavia, New York
Current Conditions -  °F | °C
As of 6:54 PM on Friday 28 Nov 2014 (Local Time) from KROC Reporting Station
Overcast Overcast  
Wind Chill: 18°   Ceiling: 3500
Heat Index: 25°   Visibility: 10mi
Dew Point: 16°   Wind: 6mph
Humidity: 69%   Direction: 240°WSW
Pressure: 30.23"   Gusts: NA
Location:  43°N, 78.19°W
Report Text: KROC 282354Z 24005KT 10SM BKN035 OVC041 M04/M09 A3023 RMK AO2 SLP247 BINOVC 4/001 60000 T10391089 11028 21044 51004
Loading
Personal Weather Stations






























Interactive Weather Map New forecast layout! Learn more

10-Day Weather Forecast

Advertisements
Track Severe Weather on mobile